Flag for USA

Past Weather in 45°29'11.2"N, 122°43'56.7"W, USA — Yesterday and Last 2 Weeks

Currently: 38 °F. Clear. (Weather station: Portland International Airport, USA). See more current weather

Past Weather in 45°29'11.2"N, 122°43'56.7"W — Graph

°F

45°29'11.2"N, 122°43'56.7"W Temperature Yesterday

Maximum temperature yesterday: 52 °F (at 2:53 pm)
Minimum temperature yesterday: 40 °F (at 11:53 pm)
Average temperature yesterday: 46 °F

High & Low Weather Summary for the Past Weeks

 TemperatureHumidityPressure
High61 °F (Jan 12, 11:53 pm)100% (Jan 7, 2:53 am)30.54 "Hg (Jan 7, 2:53 am)
Low35 °F (Jan 8, 11:53 pm)45% (Jan 14, 1:53 pm)29.57 "Hg (Jan 4, 5:53 am)
Average46 °F81%30.22 "Hg
* Reported Jan 3 8:53 pm — Jan 18 8:53 pm, 45°29'11.2"N, 122°43'56.7"W. Weather by CustomWeather, © 2021

Note: Actual official high and low records may vary slightly from our data, if they occured in-between our weather recording intervals... More about our weather records

45°29'11.2"N, 122°43'56.7"W Weather History for the Previous 24 Hours

Scroll right to see more
 ConditionsComfort  
Time TempWeatherWind HumidityBarometerVisibility
8:53 pm
Mon, Jan 18
41 °FClear.No wind82%30.51 "Hg10 mi
7:53 pm42 °FClear.6 mph79%30.51 "Hg10 mi
6:53 pm44 °FClear.6 mph73%30.49 "Hg10 mi
5:53 pm46 °FPassing clouds.9 mph71%30.47 "Hg10 mi
4:53 pm48 °FPassing clouds.7 mph68%30.46 "Hg10 mi
3:53 pm51 °FPassing clouds.9 mph61%30.45 "Hg10 mi
2:53 pm52 °FPassing clouds.7 mph61%30.45 "Hg10 mi
1:53 pm52 °FPassing clouds.3 mph59%30.46 "Hg10 mi
12:53 pm50 °FPassing clouds.6 mph63%30.50 "Hg10 mi
11:53 am46 °FPassing clouds.5 mph73%30.51 "Hg10 mi
11:23 am45 °FScattered clouds.No wind76%30.53 "Hg10 mi
10:53 am43 °FPartly sunny.3 mph82%30.53 "Hg10 mi
9:53 am40 °FPartly sunny.No wind93%30.53 "Hg10 mi
8:53 am41 °FPartly sunny.5 mph89%30.52 "Hg10 mi
8:36 am40 °FPartly sunny.No wind97%30.52 "Hg3 mi
8:14 am39 °FFog.No wind96%30.52 "Hg3 mi
7:53 am40 °FFog.3 mph93%30.50 "Hg1 mi
7:36 am40 °FFog.3 mph93%30.50 "Hg1 mi
7:20 am40 °FFog.3 mph97%30.50 "Hg1 mi
7:06 am40 °FFog.No wind93%30.50 "Hg1 mi
6:17 am39 °FFog.No wind96%30.50 "Hg0 mi
5:53 am39 °FFog.3 mph96%30.50 "Hg0 mi
5:32 am40 °FFog.No wind93%30.51 "Hg1 mi
5:18 am40 °FFog.No wind93%30.51 "Hg1 mi
5:00 am41 °FFog.No wind93%30.52 "Hg1 mi
4:31 am40 °FFog.5 mph97%30.52 "Hg2 mi
3:53 am42 °FFog.No wind96%30.52 "Hg1 mi
3:38 am42 °FFog.No wind96%30.53 "Hg1 mi
3:10 am42 °FFog.6 mph92%30.53 "Hg2 mi
2:53 am43 °FFog.8 mph89%30.53 "Hg4 mi
1:53 am43 °FFog.No wind89%30.50 "Hg6 mi
12:53 am40 °FFog.No wind93%30.52 "Hg3 mi
12:42 am39 °FFog.No wind96%30.52 "Hg3 mi
11:53 pm
Sun, Jan 17
40 °FFog.No wind93%30.53 "Hg3 mi
10:53 pm43 °FFog.No wind89%30.54 "Hg5 mi
Weather by CustomWeather, © 2021

See weather overview